Time;durP1;ratioP1;P1;durP2;ratioP2;P2;SDS_P1;SDS_P2;PMS_P1;PMS_P2;Temp;Humidity;BMP_temperature;BMP_pressure;BME280_temperature;BME280_humidity;BME280_pressure;Samples;Min_cycle;Max_cycle;Signal;HPM_P1;HPM_P2
2021/10/23 00:00:35;;;;;;;9.45;3.08;;;;;;;;;;5942636;24;20019;-57
2021/10/23 00:03:01;;;;;;;7.20;2.50;;;;;;;;;;5988434;23;20109;-56
2021/10/23 00:05:28;;;;;;;6.10;2.13;;;;;;;;;;5977217;24;20038;-54
2021/10/23 00:07:55;;;;;;;6.60;2.15;;;;;;;;;;5966705;24;20034;-53
2021/10/23 00:10:22;;;;;;;3.93;1.83;;;;;;;;;;5967368;24;20029;-55
2021/10/23 00:12:49;;;;;;;7.22;2.03;;;;;;;;;;5989710;23;20038;-55
2021/10/23 00:15:15;;;;;;;8.30;2.30;;;;;;;;;;5969602;24;20053;-55
2021/10/23 00:17:42;;;;;;;9.95;2.25;;;;;;;;;;6011011;23;20049;-56
2021/10/23 00:20:09;;;;;;;7.25;2.17;;;;;;;;;;5968167;23;20032;-55
2021/10/23 00:22:35;;;;;;;7.05;2.17;;;;;;;;;;5962080;24;20041;-54
2021/10/23 00:25:03;;;;;;;10.38;2.33;;;;;;;;;;5965897;24;20034;-56
2021/10/23 00:27:30;;;;;;;14.57;2.28;;;;;;;;;;5965612;24;20119;-56
2021/10/23 00:29:58;;;;;;;9.52;2.20;;;;;;;;;;5962267;24;20038;-52
2021/10/23 00:32:24;;;;;;;6.53;2.20;;;;;;;;;;5963853;23;20066;-57
2021/10/23 00:34:51;;;;;;;7.82;2.33;;;;;;;;;;5968000;24;20123;-52
2021/10/23 00:37:17;;;;;;;6.45;2.50;;;;;;;;;;5968626;24;20029;-54
2021/10/23 00:39:44;;;;;;;8.90;2.20;;;;;;;;;;5940380;24;20038;-53
2021/10/23 00:42:11;;;;;;;10.95;2.38;;;;;;;;;;5939808;24;20030;-52
2021/10/23 00:44:39;;;;;;;10.98;2.65;;;;;;;;;;5987743;23;20041;-51
2021/10/23 00:47:06;;;;;;;10.18;2.25;;;;;;;;;;5968829;24;20124;-55
2021/10/23 00:49:33;;;;;;;7.22;2.20;;;;;;;;;;5960852;24;20151;-51
2021/10/23 00:52:00;;;;;;;7.90;2.35;;;;;;;;;;5964443;24;20034;-53
2021/10/23 00:54:27;;;;;;;5.68;2.10;;;;;;;;;;5959618;24;20034;-54
2021/10/23 00:56:54;;;;;;;7.25;1.95;;;;;;;;;;5966006;24;20113;-51
2021/10/23 00:59:23;;;;;;;8.98;2.33;;;;;;;;;;5967857;24;20026;-55
2021/10/23 01:01:49;;;;;;;6.85;2.20;;;;;;;;;;5992669;23;20034;-53
2021/10/23 01:04:16;;;;;;;6.95;2.17;;;;;;;;;;5961146;24;20093;-55
2021/10/23 01:06:43;;;;;;;12.95;2.72;;;;;;;;;;5951547;24;20043;-56
2021/10/23 01:09:09;;;;;;;8.35;1.98;;;;;;;;;;5964586;23;20464;-54
2021/10/23 01:11:36;;;;;;;7.70;2.13;;;;;;;;;;5967092;23;20045;-52
2021/10/23 01:14:03;;;;;;;10.48;2.42;;;;;;;;;;5967292;23;20053;-56
2021/10/23 01:16:31;;;;;;;8.20;2.33;;;;;;;;;;5966946;24;20173;-54
2021/10/23 01:18:58;;;;;;;9.90;2.50;;;;;;;;;;5966922;24;20128;-56
2021/10/23 01:21:26;;;;;;;12.32;2.25;;;;;;;;;;5962920;23;20090;-54
2021/10/23 01:23:56;;;;;;;7.73;2.47;;;;;;;;;;5967120;23;20045;-56
2021/10/23 01:26:23;;;;;;;8.30;2.15;;;;;;;;;;5961283;24;20502;-56
2021/10/23 01:28:49;;;;;;;6.22;2.10;;;;;;;;;;5964422;24;20143;-57
2021/10/23 01:31:16;;;;;;;7.25;2.25;;;;;;;;;;5967006;23;20043;-57
2021/10/23 01:33:43;;;;;;;6.95;2.20;;;;;;;;;;5996545;23;20041;-53
2021/10/23 01:36:12;;;;;;;10.43;2.30;;;;;;;;;;6012955;23;20108;-57
2021/10/23 01:38:40;;;;;;;6.40;1.88;;;;;;;;;;6016143;23;20046;-53
2021/10/23 01:41:07;;;;;;;6.40;2.03;;;;;;;;;;6004280;23;20441;-56
2021/10/23 01:43:34;;;;;;;9.65;2.30;;;;;;;;;;5992914;24;20034;-54
2021/10/23 01:46:00;;;;;;;11.70;1.90;;;;;;;;;;5968157;24;20041;-54
2021/10/23 01:48:27;;;;;;;7.45;2.03;;;;;;;;;;5969592;24;20029;-56
2021/10/23 01:50:53;;;;;;;4.72;1.85;;;;;;;;;;5961841;24;20093;-52
2021/10/23 01:53:20;;;;;;;5.75;2.22;;;;;;;;;;5942981;24;20030;-51
2021/10/23 01:55:48;;;;;;;6.80;2.08;;;;;;;;;;5966064;23;20085;-55
2021/10/23 01:58:15;;;;;;;10.00;2.45;;;;;;;;;;5970405;24;20033;-53
2021/10/23 02:00:41;;;;;;;9.00;1.95;;;;;;;;;;5968516;23;20026;-52
2021/10/23 02:03:08;;;;;;;8.82;2.22;;;;;;;;;;5968001;24;20120;-50
2021/10/23 02:05:34;;;;;;;5.35;2.08;;;;;;;;;;5993149;23;20394;-50
2021/10/23 02:08:01;;;;;;;6.68;2.30;;;;;;;;;;6010238;23;20034;-53
2021/10/23 02:10:28;;;;;;;9.18;1.98;;;;;;;;;;5971078;24;20112;-54
2021/10/23 02:12:55;;;;;;;6.43;2.10;;;;;;;;;;6009906;23;20161;-53
2021/10/23 02:15:22;;;;;;;7.93;2.40;;;;;;;;;;5970523;23;20033;-51
2021/10/23 02:17:49;;;;;;;8.27;2.00;;;;;;;;;;6013421;23;20026;-52
2021/10/23 02:20:15;;;;;;;11.85;2.30;;;;;;;;;;6015713;23;20038;-54
2021/10/23 02:22:42;;;;;;;6.93;1.85;;;;;;;;;;5963160;24;20326;-55
2021/10/23 02:25:10;;;;;;;7.85;2.05;;;;;;;;;;5966020;24;20030;-53
2021/10/23 02:27:36;;;;;;;9.70;2.30;;;;;;;;;;5968804;24;20048;-56
2021/10/23 02:30:05;;;;;;;9.13;2.55;;;;;;;;;;5969786;23;20353;-56
2021/10/23 02:32:32;;;;;;;7.32;2.13;;;;;;;;;;6011727;23;20058;-55
2021/10/23 02:34:58;;;;;;;6.93;2.55;;;;;;;;;;6016540;23;20030;-52
2021/10/23 02:37:25;;;;;;;7.28;2.15;;;;;;;;;;5966993;23;20037;-54
2021/10/23 02:39:51;;;;;;;7.97;2.38;;;;;;;;;;5970733;24;20026;-56
2021/10/23 02:42:20;;;;;;;9.45;2.05;;;;;;;;;;5993606;23;20070;-55
2021/10/23 02:44:47;;;;;;;10.93;2.65;;;;;;;;;;5963451;23;20049;-56
2021/10/23 02:47:16;;;;;;;11.63;2.65;;;;;;;;;;5942364;24;20049;-55
2021/10/23 02:49:42;;;;;;;8.25;1.92;;;;;;;;;;5963983;24;20034;-55
2021/10/23 02:52:09;;;;;;;11.52;2.53;;;;;;;;;;5993188;23;20119;-56
2021/10/23 02:54:35;;;;;;;9.48;2.28;;;;;;;;;;5995089;23;20037;-56
2021/10/23 02:57:05;;;;;;;6.30;1.90;;;;;;;;;;5970589;24;20046;-54
2021/10/23 02:59:31;;;;;;;8.20;1.95;;;;;;;;;;5967833;24;20045;-56
2021/10/23 03:01:58;;;;;;;5.63;2.15;;;;;;;;;;6016668;23;20128;-54
2021/10/23 03:04:26;;;;;;;5.88;2.15;;;;;;;;;;5991823;23;20034;-54
2021/10/23 03:06:52;;;;;;;7.10;1.93;;;;;;;;;;5970443;24;20041;-55
2021/10/23 03:09:22;;;;;;;9.13;2.05;;;;;;;;;;5963730;24;20128;-54
2021/10/23 03:11:48;;;;;;;6.05;2.05;;;;;;;;;;5957859;24;20046;-55
2021/10/23 03:14:15;;;;;;;8.00;1.88;;;;;;;;;;5971703;23;20198;-54
2021/10/23 03:16:43;;;;;;;6.43;2.00;;;;;;;;;;5970208;24;20042;-55
2021/10/23 03:19:09;;;;;;;5.13;1.80;;;;;;;;;;5965787;24;20556;-56
2021/10/23 03:21:37;;;;;;;7.20;2.45;;;;;;;;;;5966838;24;20182;-53
2021/10/23 03:24:04;;;;;;;3.53;1.67;;;;;;;;;;5966496;23;20033;-51
2021/10/23 03:26:30;;;;;;;9.52;2.20;;;;;;;;;;5993453;23;20022;-53
2021/10/23 03:28:57;;;;;;;5.72;2.15;;;;;;;;;;5968720;24;20037;-52
2021/10/23 03:31:24;;;;;;;7.25;2.20;;;;;;;;;;5959834;24;20102;-51
2021/10/23 03:33:50;;;;;;;6.28;2.10;;;;;;;;;;5962867;24;20023;-52
2021/10/23 03:36:18;;;;;;;7.63;2.00;;;;;;;;;;5945728;23;20059;-54
2021/10/23 03:38:46;;;;;;;5.20;1.98;;;;;;;;;;5965304;24;20112;-53
2021/10/23 03:41:12;;;;;;;5.27;1.70;;;;;;;;;;5958558;24;20044;-51
2021/10/23 03:43:38;;;;;;;4.93;1.90;;;;;;;;;;5970460;24;20034;-50
2021/10/23 03:46:05;;;;;;;7.53;1.88;;;;;;;;;;5963101;24;20037;-50
2021/10/23 03:48:31;;;;;;;7.18;2.00;;;;;;;;;;5969888;24;20045;-55
2021/10/23 03:50:58;;;;;;;6.25;1.92;;;;;;;;;;5966397;24;20092;-52
2021/10/23 03:53:24;;;;;;;6.95;2.25;;;;;;;;;;5970290;24;20457;-53
2021/10/23 03:55:56;;;;;;;3.83;1.60;;;;;;;;;;5990683;23;20037;-53
2021/10/23 03:58:22;;;;;;;8.00;1.80;;;;;;;;;;5966488;24;20080;-51
2021/10/23 04:00:49;;;;;;;6.03;2.13;;;;;;;;;;5964498;23;20029;-53
2021/10/23 04:03:15;;;;;;;5.82;1.83;;;;;;;;;;5992262;23;20042;-53
2021/10/23 04:05:42;;;;;;;6.20;1.92;;;;;;;;;;5967621;23;20046;-55
2021/10/23 04:08:08;;;;;;;8.75;2.30;;;;;;;;;;5967648;24;20045;-52
2021/10/23 04:10:34;;;;;;;4.93;1.80;;;;;;;;;;5967886;24;20045;-55
2021/10/23 04:13:02;;;;;;;13.95;1.90;;;;;;;;;;5960424;24;20030;-56
2021/10/23 04:15:30;;;;;;;5.30;2.00;;;;;;;;;;5965303;24;20026;-57
2021/10/23 04:17:57;;;;;;;11.45;2.30;;;;;;;;;;5964326;23;20044;-57
2021/10/23 04:20:23;;;;;;;9.70;2.50;;;;;;;;;;6018003;23;20072;-55
2021/10/23 04:22:49;;;;;;;5.38;1.98;;;;;;;;;;5950677;24;20106;-57
2021/10/23 04:25:16;;;;;;;9.32;2.10;;;;;;;;;;5958426;24;20037;-57
2021/10/23 04:27:43;;;;;;;7.13;2.17;;;;;;;;;;5986354;23;20054;-51
2021/10/23 04:30:11;;;;;;;7.97;2.15;;;;;;;;;;5962792;24;20038;-56
2021/10/23 04:32:37;;;;;;;10.47;2.33;;;;;;;;;;5955418;24;20082;-55
2021/10/23 04:35:04;;;;;;;3.92;1.88;;;;;;;;;;5941186;24;20379;-55
2021/10/23 04:37:31;;;;;;;6.95;2.17;;;;;;;;;;5973573;23;20041;-51
2021/10/23 04:39:58;;;;;;;6.78;2.30;;;;;;;;;;5994461;23;20041;-54
2021/10/23 04:42:24;;;;;;;7.00;2.63;;;;;;;;;;5989083;23;20045;-51
2021/10/23 04:44:51;;;;;;;6.15;2.08;;;;;;;;;;6015506;23;20034;-52
2021/10/23 04:47:19;;;;;;;5.82;2.05;;;;;;;;;;5990475;23;20348;-53
2021/10/23 04:49:45;;;;;;;8.80;2.30;;;;;;;;;;5967852;24;20030;-55
2021/10/23 04:52:12;;;;;;;6.38;2.40;;;;;;;;;;5994530;23;20069;-51
2021/10/23 04:54:38;;;;;;;5.70;2.20;;;;;;;;;;5958671;24;20028;-54
2021/10/23 04:57:05;;;;;;;4.82;2.10;;;;;;;;;;5965096;24;20042;-57
2021/10/23 04:59:32;;;;;;;5.70;2.20;;;;;;;;;;5959751;24;20593;-53
2021/10/23 05:01:58;;;;;;;8.05;2.35;;;;;;;;;;5987839;23;20148;-54
2021/10/23 05:04:26;;;;;;;9.00;2.35;;;;;;;;;;5966014;24;20041;-52
2021/10/23 05:06:53;;;;;;;5.87;2.20;;;;;;;;;;5967415;24;20042;-56
2021/10/23 05:09:19;;;;;;;8.05;2.22;;;;;;;;;;5961061;24;20038;-52
2021/10/23 05:11:46;;;;;;;4.38;1.67;;;;;;;;;;5968367;24;20079;-54
2021/10/23 05:14:12;;;;;;;6.63;2.20;;;;;;;;;;5968145;24;20038;-52
2021/10/23 05:16:39;;;;;;;9.48;2.28;;;;;;;;;;5970385;23;20052;-52
2021/10/23 05:19:05;;;;;;;8.15;2.50;;;;;;;;;;5968489;24;20041;-51
2021/10/23 05:21:33;;;;;;;6.60;2.08;;;;;;;;;;5970300;24;20040;-53
2021/10/23 05:23:59;;;;;;;9.45;2.55;;;;;;;;;;5967526;24;20022;-52
2021/10/23 05:26:26;;;;;;;7.10;2.75;;;;;;;;;;5970273;24;20026;-56
2021/10/23 05:28:53;;;;;;;6.63;2.35;;;;;;;;;;5967177;24;20128;-56
2021/10/23 05:31:20;;;;;;;7.47;2.47;;;;;;;;;;5941876;24;20129;-54
2021/10/23 05:33:46;;;;;;;6.28;2.45;;;;;;;;;;5966156;23;20039;-53
2021/10/23 05:36:14;;;;;;;6.00;2.50;;;;;;;;;;5990727;23;20088;-53
2021/10/23 05:38:42;;;;;;;7.45;2.30;;;;;;;;;;5968582;24;20034;-52
2021/10/23 05:41:08;;;;;;;9.80;2.47;;;;;;;;;;5992019;23;20026;-55
2021/10/23 05:43:35;;;;;;;5.32;2.20;;;;;;;;;;5971276;24;20086;-55
2021/10/23 05:46:01;;;;;;;8.00;2.67;;;;;;;;;;5966887;24;20038;-55
2021/10/23 05:48:28;;;;;;;6.63;2.65;;;;;;;;;;5994941;23;20033;-56
2021/10/23 05:50:55;;;;;;;8.95;2.33;;;;;;;;;;5981137;23;20061;-58
2021/10/23 05:53:24;;;;;;;9.25;2.60;;;;;;;;;;5971841;24;20034;-55
2021/10/23 05:55:50;;;;;;;;;;;;;;;;;;5992244;23;20030;-55
2021/10/23 05:58:18;;;;;;;6.68;2.35;;;;;;;;;;5992881;24;19937;-55
2021/10/23 06:00:52;;;;;;;7.97;3.08;;;;;;;;;;5968039;24;20045;-51
2021/10/23 06:03:20;;;;;;;8.18;2.90;;;;;;;;;;6014944;23;20127;-57
2021/10/23 06:05:47;;;;;;;11.82;4.28;;;;;;;;;;6000033;23;20042;-51
2021/10/23 06:08:13;;;;;;;12.50;5.03;;;;;;;;;;5968314;24;20038;-52
2021/10/23 06:10:40;;;;;;;9.23;4.22;;;;;;;;;;5964483;24;20112;-57
2021/10/23 06:13:06;;;;;;;11.40;3.58;;;;;;;;;;5916014;24;20067;-55
2021/10/23 06:15:35;;;;;;;7.97;2.90;;;;;;;;;;5915219;24;20090;-52
2021/10/23 06:18:03;;;;;;;5.38;2.45;;;;;;;;;;5940958;24;20081;-55
2021/10/23 06:20:29;;;;;;;6.60;2.60;;;;;;;;;;5940167;24;20120;-54
2021/10/23 06:22:56;;;;;;;7.82;3.03;;;;;;;;;;5964028;24;20476;-54
2021/10/23 06:25:23;;;;;;;5.97;2.40;;;;;;;;;;5969263;24;20026;-55
2021/10/23 06:27:49;;;;;;;5.38;2.35;;;;;;;;;;5945445;24;20042;-51
2021/10/23 06:30:16;;;;;;;5.80;2.28;;;;;;;;;;5916466;24;20111;-54
2021/10/23 06:32:48;;;;;;;6.22;2.55;;;;;;;;;;5938575;24;20030;-53
2021/10/23 06:35:15;;;;;;;5.28;2.50;;;;;;;;;;5943978;24;20038;-55
2021/10/23 06:37:42;;;;;;;6.53;2.90;;;;;;;;;;5936523;24;20034;-54
2021/10/23 06:40:09;;;;;;;6.47;2.72;;;;;;;;;;5934545;24;20085;-54
2021/10/23 06:42:35;;;;;;;6.72;2.95;;;;;;;;;;5931528;24;20168;-51
2021/10/23 06:45:03;;;;;;;9.73;3.10;;;;;;;;;;5939227;24;20045;-53
2021/10/23 06:47:29;;;;;;;9.82;3.00;;;;;;;;;;5939164;24;20026;-54
2021/10/23 06:49:58;;;;;;;9.75;3.20;;;;;;;;;;5923904;24;20046;-54
2021/10/23 06:52:25;;;;;;;8.05;3.20;;;;;;;;;;5959228;24;20037;-52
2021/10/23 06:54:51;;;;;;;11.90;4.20;;;;;;;;;;5958848;24;20026;-55
2021/10/23 06:57:18;;;;;;;17.58;6.53;;;;;;;;;;5923414;24;20042;-56
2021/10/23 06:59:44;;;;;;;15.10;6.28;;;;;;;;;;5899793;24;20026;-55
2021/10/23 07:02:10;;;;;;;14.82;5.60;;;;;;;;;;5922207;24;20038;-57
2021/10/23 07:04:37;;;;;;;14.13;4.97;;;;;;;;;;5955289;24;20034;-56
2021/10/23 07:07:05;;;;;;;14.40;4.97;;;;;;;;;;5972818;23;20135;-55
2021/10/23 07:09:32;;;;;;;9.90;3.80;;;;;;;;;;5964959;23;20395;-54
2021/10/23 07:11:59;;;;;;;12.50;5.15;;;;;;;;;;5971826;23;20287;-52
2021/10/23 07:14:25;;;;;;;12.98;5.47;;;;;;;;;;5954076;23;20113;-53
2021/10/23 07:16:54;;;;;;;11.38;4.55;;;;;;;;;;5966297;23;20045;-56
2021/10/23 07:19:20;;;;;;;13.15;4.72;;;;;;;;;;5967399;24;20030;-53
2021/10/23 07:21:47;;;;;;;10.02;4.50;;;;;;;;;;5980752;23;20030;-54
2021/10/23 07:24:17;;;;;;;11.00;3.97;;;;;;;;;;5955353;24;20093;-55
2021/10/23 07:26:44;;;;;;;10.98;4.57;;;;;;;;;;5956572;24;20023;-53
2021/10/23 07:29:12;;;;;;;14.30;4.07;;;;;;;;;;5959297;24;20039;-56
2021/10/23 07:31:40;;;;;;;11.75;3.83;;;;;;;;;;5957549;24;20038;-53
2021/10/23 07:34:07;;;;;;;14.52;4.60;;;;;;;;;;5960722;24;20027;-51
2021/10/23 07:36:35;;;;;;;12.50;5.15;;;;;;;;;;5958881;24;20038;-53
2021/10/23 07:39:01;;;;;;;10.77;4.13;;;;;;;;;;5964770;24;20572;-52
2021/10/23 07:41:29;;;;;;;11.70;4.07;;;;;;;;;;5993196;23;20038;-55
2021/10/23 07:43:56;;;;;;;10.63;4.30;;;;;;;;;;5970622;23;20115;-54
2021/10/23 07:46:22;;;;;;;10.95;4.78;;;;;;;;;;5990672;23;20088;-56
2021/10/23 07:48:49;;;;;;;13.25;4.55;;;;;;;;;;5969765;23;20361;-56
2021/10/23 07:51:15;;;;;;;10.95;4.75;;;;;;;;;;6001914;23;20022;-56
2021/10/23 07:53:42;;;;;;;12.80;5.10;;;;;;;;;;6014909;23;20060;-55
2021/10/23 07:56:09;;;;;;;8.93;4.32;;;;;;;;;;6011673;23;20038;-53
2021/10/23 07:58:37;;;;;;;13.90;4.23;;;;;;;;;;5992387;23;20097;-53
2021/10/23 08:01:04;;;;;;;14.43;4.57;;;;;;;;;;5949351;24;20046;-56
2021/10/23 08:03:31;;;;;;;12.52;3.85;;;;;;;;;;5941340;24;20272;-50
2021/10/23 08:05:57;;;;;;;10.68;4.80;;;;;;;;;;5960289;24;20034;-52
2021/10/23 08:08:24;;;;;;;8.88;4.03;;;;;;;;;;5993215;23;20018;-56
2021/10/23 08:10:50;;;;;;;13.38;4.60;;;;;;;;;;5986225;23;20038;-53
2021/10/23 08:13:17;;;;;;;11.38;4.20;;;;;;;;;;5970036;23;20452;-54
2021/10/23 08:15:47;;;;;;;13.63;4.70;;;;;;;;;;5965027;23;20073;-53
2021/10/23 08:18:14;;;;;;;13.65;4.82;;;;;;;;;;6015232;23;20038;-54
2021/10/23 08:20:40;;;;;;;9.85;4.80;;;;;;;;;;5965152;23;20042;-56
2021/10/23 08:23:08;;;;;;;11.68;4.85;;;;;;;;;;6008005;23;20034;-52
2021/10/23 08:25:37;;;;;;;11.52;5.15;;;;;;;;;;5969042;24;20038;-56
2021/10/23 08:28:04;;;;;;;10.93;5.35;;;;;;;;;;5968359;24;20045;-54
2021/10/23 08:30:31;;;;;;;16.27;6.05;;;;;;;;;;5967889;24;20033;-54
2021/10/23 08:32:59;;;;;;;17.65;6.03;;;;;;;;;;5963098;23;20042;-53
2021/10/23 08:35:26;;;;;;;13.75;5.95;;;;;;;;;;5970008;24;20029;-53
2021/10/23 08:37:54;;;;;;;14.43;5.80;;;;;;;;;;5966618;24;20034;-54
2021/10/23 08:40:20;;;;;;;17.27;6.60;;;;;;;;;;5976711;24;20393;-54
2021/10/23 08:42:47;;;;;;;14.23;7.22;;;;;;;;;;5954680;24;20042;-56
2021/10/23 08:45:14;;;;;;;15.90;6.68;;;;;;;;;;5964785;24;20034;-54
2021/10/23 08:47:41;;;;;;;13.40;6.43;;;;;;;;;;5955724;24;20052;-51
2021/10/23 08:50:10;;;;;;;17.25;6.32;;;;;;;;;;5964075;24;20116;-52
2021/10/23 08:52:37;;;;;;;14.00;6.05;;;;;;;;;;5954246;24;20030;-57
2021/10/23 08:55:04;;;;;;;13.82;6.72;;;;;;;;;;5969381;24;20208;-57
2021/10/23 08:57:30;;;;;;;16.02;6.25;;;;;;;;;;5968665;24;20146;-57
2021/10/23 08:59:57;;;;;;;16.70;7.47;;;;;;;;;;6020552;23;20030;-55
2021/10/23 09:02:24;;;;;;;18.20;7.95;;;;;;;;;;6008968;23;20037;-51
2021/10/23 09:04:51;;;;;;;16.10;7.55;;;;;;;;;;5964694;24;20120;-54
2021/10/23 09:07:21;;;;;;;20.85;7.40;;;;;;;;;;5989193;23;20049;-54
2021/10/23 09:09:48;;;;;;;17.30;7.80;;;;;;;;;;5941996;24;20030;-54
2021/10/23 09:12:19;;;;;;;16.70;7.35;;;;;;;;;;5959033;24;20041;-54
2021/10/23 09:14:46;;;;;;;13.60;7.05;;;;;;;;;;5959972;24;20515;-50
2021/10/23 09:17:13;;;;;;;13.95;6.88;;;;;;;;;;5970741;24;20043;-55
2021/10/23 09:19:42;;;;;;;15.60;6.90;;;;;;;;;;5965585;24;20510;-54
2021/10/23 09:22:21;;;;;;;15.68;6.65;;;;;;;;;;5994306;23;20026;-49
2021/10/23 09:24:49;;;;;;;14.30;7.00;;;;;;;;;;5989791;23;20062;-51
2021/10/23 09:27:17;;;;;;;16.00;6.70;;;;;;;;;;5969930;24;20038;-50
2021/10/23 09:29:43;;;;;;;15.95;6.63;;;;;;;;;;5946384;24;20030;-54
2021/10/23 09:32:10;;;;;;;15.88;7.15;;;;;;;;;;5938809;24;20035;-52
2021/10/23 09:34:37;;;;;;;13.75;6.68;;;;;;;;;;5953830;24;20029;-52
2021/10/23 09:37:04;;;;;;;12.35;6.00;;;;;;;;;;5968672;24;20034;-55
2021/10/23 09:39:31;;;;;;;13.85;6.30;;;;;;;;;;5990946;23;20072;-50
2021/10/23 09:42:10;;;;;;;15.52;7.05;;;;;;;;;;5970262;23;20033;-54
2021/10/23 09:44:52;;;;;;;12.65;5.93;;;;;;;;;;5988318;23;20034;-55
2021/10/23 09:47:18;;;;;;;14.13;6.25;;;;;;;;;;5968323;24;20042;-55
2021/10/23 09:50:02;;;;;;;14.35;6.32;;;;;;;;;;5966481;24;20022;-54
2021/10/23 09:52:29;;;;;;;13.52;6.82;;;;;;;;;;5967313;23;20041;-54
2021/10/23 09:55:07;;;;;;;13.80;7.32;;;;;;;;;;5967929;24;20033;-54
2021/10/23 09:57:34;;;;;;;16.42;6.78;;;;;;;;;;5968517;24;20038;-57
2021/10/23 10:00:04;;;;;;;15.23;7.20;;;;;;;;;;5968788;23;20034;-55
2021/10/23 10:02:31;;;;;;;17.83;7.15;;;;;;;;;;5970306;24;20030;-54
2021/10/23 10:04:59;;;;;;;12.65;6.68;;;;;;;;;;5967432;24;20105;-56
2021/10/23 10:07:25;;;;;;;15.32;7.50;;;;;;;;;;5964776;24;20026;-57
2021/10/23 10:09:54;;;;;;;16.75;7.70;;;;;;;;;;5963121;24;20042;-56
2021/10/23 10:12:20;;;;;;;;;;;;;;;;;;5941857;24;20597;-56
2021/10/23 10:14:49;;;;;;;15.15;7.50;;;;;;;;;;5964727;24;20003;-54
2021/10/23 10:17:17;;;;;;;14.05;6.50;;;;;;;;;;5991183;23;20038;-56
2021/10/23 10:19:43;;;;;;;15.07;6.78;;;;;;;;;;5994982;23;20115;-55
2021/10/23 10:22:10;;;;;;;13.60;7.03;;;;;;;;;;5966256;24;20021;-58
2021/10/23 10:24:37;;;;;;;23.38;8.80;;;;;;;;;;5973502;24;20112;-57
2021/10/23 10:27:04;;;;;;;16.83;7.65;;;;;;;;;;5968655;24;20022;-57
2021/10/23 10:29:42;;;;;;;19.70;8.70;;;;;;;;;;5969955;24;20128;-57
2021/10/23 10:32:14;;;;;;;20.70;9.73;;;;;;;;;;5967266;24;20034;-57
2021/10/23 10:37:55;;;;;;;20.48;10.15;;;;;;;;;;5965170;24;20045;-57
2021/10/23 10:43:07;;;;;;;21.40;10.25;;;;;;;;;;5988050;23;20034;-56
2021/10/23 10:45:36;;;;;;;25.00;10.38;;;;;;;;;;5969791;24;20025;-55
2021/10/23 10:48:02;;;;;;;;;;;;;;;;;;5991016;23;20062;-55
2021/10/23 10:50:35;;;;;;;16.90;7.13;;;;;;;;;;5967501;24;19925;-56
2021/10/23 10:53:12;;;;;;;16.25;7.45;;;;;;;;;;5991629;23;20149;-57
2021/10/23 10:55:41;;;;;;;18.77;8.07;;;;;;;;;;5970110;24;20033;-58
2021/10/23 10:58:09;;;;;;;21.08;8.43;;;;;;;;;;5966523;24;20065;-58
2021/10/23 11:01:10;;;;;;;15.13;7.38;;;;;;;;;;5975225;23;20066;-57
2021/10/23 11:03:37;;;;;;;18.35;8.15;;;;;;;;;;5959832;24;20042;-58
2021/10/23 11:06:22;;;;;;;20.10;9.05;;;;;;;;;;5968809;24;20030;-56
2021/10/23 11:09:10;;;;;;;20.77;9.27;;;;;;;;;;5975819;23;20034;-56
2021/10/23 11:11:51;;;;;;;20.92;7.85;;;;;;;;;;5959110;23;20037;-57
2021/10/23 11:14:31;;;;;;;15.38;7.45;;;;;;;;;;5989390;23;20042;-57
2021/10/23 11:17:14;;;;;;;24.05;8.35;;;;;;;;;;5969155;24;20042;-56
2021/10/23 11:19:42;;;;;;;17.83;8.40;;;;;;;;;;5968006;23;20038;-58
2021/10/23 11:22:11;;;;;;;18.92;8.80;;;;;;;;;;5970865;24;20030;-56
2021/10/23 11:24:39;;;;;;;23.63;8.85;;;;;;;;;;5988604;23;20042;-57
2021/10/23 11:27:06;;;;;;;21.55;9.15;;;;;;;;;;5967646;24;20037;-58
2021/10/23 11:29:32;;;;;;;23.40;9.00;;;;;;;;;;5965308;24;20090;-57
2021/10/23 11:31:59;;;;;;;22.35;9.95;;;;;;;;;;6014704;23;20022;-56
2021/10/23 11:34:27;;;;;;;19.67;9.48;;;;;;;;;;5967750;24;20070;-56
2021/10/23 11:36:58;;;;;;;18.92;8.80;;;;;;;;;;5967815;24;20135;-57
2021/10/23 11:39:25;;;;;;;18.92;8.20;;;;;;;;;;5978782;23;20026;-57
2021/10/23 11:41:53;;;;;;;26.05;9.05;;;;;;;;;;5992603;23;20051;-57
2021/10/23 11:44:27;;;;;;;18.80;9.37;;;;;;;;;;5989882;23;20111;-57
2021/10/23 11:46:57;;;;;;;19.10;9.15;;;;;;;;;;5970158;24;20100;-57
2021/10/23 11:49:30;;;;;;;27.13;11.73;;;;;;;;;;5953638;24;20022;-57
2021/10/23 11:51:57;;;;;;;22.40;10.75;;;;;;;;;;5993208;23;20034;-58
2021/10/23 11:54:23;;;;;;;23.48;9.90;;;;;;;;;;5966827;24;20034;-58
2021/10/23 11:56:50;;;;;;;26.77;10.90;;;;;;;;;;5969590;24;20034;-58
2021/10/23 11:59:23;;;;;;;19.90;10.23;;;;;;;;;;5964641;23;20056;-57
2021/10/23 12:01:50;;;;;;;22.33;10.20;;;;;;;;;;5968046;23;20030;-57
2021/10/23 12:04:17;;;;;;;24.70;11.15;;;;;;;;;;5989457;23;20038;-58
2021/10/23 12:06:44;;;;;;;27.48;10.70;;;;;;;;;;5969591;23;20152;-58
2021/10/23 12:09:18;;;;;;;28.60;10.52;;;;;;;;;;5966316;23;20031;-56
2021/10/23 12:11:45;;;;;;;24.65;10.20;;;;;;;;;;5953338;24;20147;-58
2021/10/23 12:14:14;;;;;;;20.95;9.05;;;;;;;;;;5942204;24;20041;-56
2021/10/23 12:16:44;;;;;;;22.90;9.38;;;;;;;;;;5986436;24;20120;-55
2021/10/23 12:19:13;;;;;;;23.58;10.25;;;;;;;;;;5969973;24;20098;-58
2021/10/23 12:21:44;;;;;;;28.00;10.10;;;;;;;;;;5989356;23;20037;-58
2021/10/23 12:24:14;;;;;;;22.90;9.80;;;;;;;;;;5969984;24;20058;-58
2021/10/23 12:26:42;;;;;;;26.45;10.35;;;;;;;;;;5966246;24;20029;-56
2021/10/23 12:29:10;;;;;;;24.75;9.65;;;;;;;;;;5962441;24;20030;-55
2021/10/23 12:31:55;;;;;;;21.83;8.35;;;;;;;;;;5969156;24;20052;-54
2021/10/23 12:34:23;;;;;;;26.98;8.50;;;;;;;;;;5969277;24;20069;-55
2021/10/23 12:36:51;;;;;;;22.03;8.63;;;;;;;;;;5972667;23;20049;-57
2021/10/23 12:39:18;;;;;;;28.73;9.40;;;;;;;;;;5967476;24;20048;-56
2021/10/23 12:41:45;;;;;;;27.33;9.13;;;;;;;;;;5966444;24;20255;-55
2021/10/23 12:44:13;;;;;;;27.60;8.98;;;;;;;;;;5970265;24;20041;-55
2021/10/23 12:46:40;;;;;;;19.67;9.20;;;;;;;;;;5993597;23;20026;-56
2021/10/23 12:49:06;;;;;;;28.33;9.90;;;;;;;;;;6018334;23;20040;-58
2021/10/23 12:51:34;;;;;;;27.88;10.25;;;;;;;;;;5983728;23;20042;-53
2021/10/23 12:54:00;;;;;;;24.57;9.33;;;;;;;;;;5966058;24;20026;-57
2021/10/23 12:56:27;;;;;;;21.90;8.73;;;;;;;;;;5965106;24;20066;-57
2021/10/23 12:58:53;;;;;;;24.67;9.00;;;;;;;;;;5969033;24;20033;-58
2021/10/23 13:01:21;;;;;;;21.10;8.25;;;;;;;;;;5955018;24;20034;-57
2021/10/23 13:03:48;;;;;;;26.17;9.35;;;;;;;;;;5966935;24;20040;-56
2021/10/23 13:06:14;;;;;;;21.05;9.05;;;;;;;;;;5968773;24;20037;-53
2021/10/23 13:08:45;;;;;;;22.92;9.27;;;;;;;;;;5966865;23;20093;-58
2021/10/23 13:11:11;;;;;;;22.73;8.48;;;;;;;;;;5969195;24;20093;-57
2021/10/23 13:13:39;;;;;;;21.88;9.52;;;;;;;;;;5967408;24;20041;-58
2021/10/23 13:16:06;;;;;;;25.42;11.07;;;;;;;;;;5968517;24;20030;-58
2021/10/23 13:18:36;;;;;;;32.75;10.13;;;;;;;;;;5950877;24;20031;-58
2021/10/23 13:21:03;;;;;;;22.45;9.93;;;;;;;;;;5967492;24;20038;-55
2021/10/23 13:23:29;;;;;;;20.55;9.77;;;;;;;;;;5962558;24;20049;-57
2021/10/23 13:25:58;;;;;;;20.38;8.70;;;;;;;;;;5941707;24;20313;-56
2021/10/23 13:28:25;;;;;;;25.25;8.68;;;;;;;;;;5943784;24;20038;-57
2021/10/23 13:30:51;;;;;;;20.20;9.10;;;;;;;;;;5965291;24;20046;-57
2021/10/23 13:33:18;;;;;;;21.33;9.32;;;;;;;;;;5966397;24;20034;-58
2021/10/23 13:35:45;;;;;;;24.10;9.07;;;;;;;;;;6018114;23;20031;-59
2021/10/23 13:38:11;;;;;;;23.85;9.65;;;;;;;;;;6014686;23;20036;-56
2021/10/23 13:40:38;;;;;;;20.52;9.13;;;;;;;;;;5968900;24;20030;-54
2021/10/23 13:43:07;;;;;;;21.90;9.52;;;;;;;;;;5968429;23;20042;-58
2021/10/23 13:45:34;;;;;;;22.58;8.80;;;;;;;;;;5969443;24;20116;-53
2021/10/23 13:48:01;;;;;;;24.85;8.68;;;;;;;;;;5969545;24;20029;-53
2021/10/23 13:50:27;;;;;;;19.67;8.27;;;;;;;;;;5988649;23;20057;-57
2021/10/23 13:52:54;;;;;;;18.25;9.10;;;;;;;;;;5968316;24;20034;-56
2021/10/23 13:55:21;;;;;;;19.95;8.30;;;;;;;;;;5960235;24;20038;-58
2021/10/23 13:57:48;;;;;;;18.35;6.70;;;;;;;;;;5962974;24;20027;-57
2021/10/23 14:00:16;;;;;;;21.33;7.85;;;;;;;;;;5966264;23;20026;-58
2021/10/23 14:02:43;;;;;;;20.55;8.20;;;;;;;;;;5967537;23;20030;-57
2021/10/23 14:05:10;;;;;;;20.85;7.30;;;;;;;;;;5964457;23;20030;-59
2021/10/23 14:07:37;;;;;;;20.10;7.65;;;;;;;;;;5962771;23;20125;-55
2021/10/23 14:10:03;;;;;;;19.30;7.72;;;;;;;;;;5934686;24;20162;-54
2021/10/23 14:12:32;;;;;;;16.77;6.63;;;;;;;;;;5956897;23;20125;-56
2021/10/23 14:14:59;;;;;;;17.55;6.25;;;;;;;;;;5981967;23;20049;-54
2021/10/23 14:17:28;;;;;;;14.75;6.30;;;;;;;;;;5942431;24;20026;-57
2021/10/23 14:19:54;;;;;;;16.67;6.63;;;;;;;;;;5937992;24;20026;-57
2021/10/23 14:22:22;;;;;;;15.85;6.50;;;;;;;;;;5942376;24;20038;-57
2021/10/23 14:24:51;;;;;;;22.10;6.88;;;;;;;;;;5938833;24;20041;-56
2021/10/23 14:27:27;;;;;;;15.05;6.50;;;;;;;;;;5941655;24;20034;-58
2021/10/23 14:29:53;;;;;;;18.58;5.78;;;;;;;;;;5937754;24;20061;-56
2021/10/23 14:32:20;;;;;;;19.88;6.65;;;;;;;;;;5917892;24;20034;-57
2021/10/23 14:34:48;;;;;;;15.60;6.10;;;;;;;;;;5943413;24;20042;-57
2021/10/23 14:37:14;;;;;;;13.93;6.57;;;;;;;;;;5964641;23;20030;-54
2021/10/23 14:39:41;;;;;;;15.68;6.45;;;;;;;;;;5943192;24;20034;-57
2021/10/23 14:42:07;;;;;;;25.23;7.80;;;;;;;;;;5939133;24;20038;-59
2021/10/23 14:44:33;;;;;;;21.05;8.02;;;;;;;;;;5943008;24;20026;-59